Time;durP1;ratioP1;P1;durP2;ratioP2;P2;SDS_P1;SDS_P2;PMS_P1;PMS_P2;Temp;Humidity;BMP_temperature;BMP_pressure;BME280_temperature;BME280_humidity;BME280_pressure;Samples;Min_cycle;Max_cycle;Signal;HPM_P1;HPM_P2
2023/12/29 00:00:17;;;;;;;6.80;2.60;;;9.60;13.50;;;;;;4997839;28;20461;-60
2023/12/29 00:02:44;;;;;;;6.10;2.77;;;9.60;2.80;;;;;;4997208;28;20555;-61
2023/12/29 00:05:12;;;;;;;8.47;3.07;;;9.60;1.00;;;;;;4997479;28;20464;-62
2023/12/29 00:07:39;;;;;;;6.30;3.03;;;9.70;4.30;;;;;;4997466;28;20970;-60
2023/12/29 00:10:07;;;;;;;9.20;2.80;;;9.70;14.30;;;;;;4997666;28;20563;-63
2023/12/29 00:12:34;;;;;;;4.13;2.07;;;9.70;11.70;;;;;;4998015;28;20457;-59
2023/12/29 00:15:02;;;;;;;4.93;2.63;;;9.70;1.00;;;;;;4997373;28;20901;-62
2023/12/29 00:17:32;;;;;;;6.50;2.57;;;9.80;7.10;;;;;;4997554;28;20461;-61
2023/12/29 00:19:59;;;;;;;5.33;2.50;;;9.80;1.00;;;;;;4996964;28;20701;-61
2023/12/29 00:22:27;;;;;;;6.30;2.70;;;9.80;11.60;;;;;;4997216;28;20453;-60
2023/12/29 00:24:54;;;;;;;6.33;2.40;;;9.70;14.40;;;;;;4997181;28;20511;-60
2023/12/29 00:27:22;;;;;;;7.17;2.97;;;9.70;39.30;;;;;;4997405;28;20464;-60
2023/12/29 00:29:49;;;;;;;8.37;2.47;;;9.80;1.00;;;;;;4997122;28;20532;-61
2023/12/29 00:32:16;;;;;;;4.20;3.10;;;9.80;11.90;;;;;;4997327;28;20503;-59
2023/12/29 00:34:45;;;;;;;4.00;2.43;;;9.80;30.60;;;;;;4997430;28;20483;-63
2023/12/29 00:37:12;;;;;;;3.93;2.40;;;9.70;16.50;;;;;;4996877;28;20460;-61
2023/12/29 00:39:39;;;;;;;8.63;2.50;;;9.70;47.60;;;;;;4997263;28;20921;-59
2023/12/29 00:42:07;;;;;;;8.33;2.47;;;9.70;84.90;;;;;;4997388;28;20580;-62
2023/12/29 00:44:35;;;;;;;6.70;3.37;;;9.80;58.50;;;;;;4997289;28;20465;-60
2023/12/29 00:47:02;;;;;;;6.43;3.00;;;9.70;51.00;;;;;;4997128;28;20467;-61
2023/12/29 00:49:29;;;;;;;7.70;2.87;;;9.80;39.80;;;;;;5000228;28;20882;-59
2023/12/29 00:51:58;;;;;;;5.03;3.13;;;9.80;51.40;;;;;;5000858;28;20503;-61
2023/12/29 00:54:25;;;;;;;6.80;2.10;;;9.80;42.00;;;;;;5000692;28;20778;-62
2023/12/29 00:56:53;;;;;;;4.00;2.40;;;9.80;25.00;;;;;;5000916;28;20489;-60
2023/12/29 00:59:20;;;;;;;5.17;2.07;;;9.80;32.70;;;;;;5000340;28;20560;-59
2023/12/29 01:01:48;;;;;;;7.20;2.37;;;9.80;37.00;;;;;;5000506;28;20461;-59
2023/12/29 01:04:15;;;;;;;5.43;2.10;;;9.80;37.60;;;;;;5000844;28;20567;-60
2023/12/29 01:06:42;;;;;;;8.77;3.00;;;9.80;26.90;;;;;;5000777;28;20457;-60
2023/12/29 01:09:11;;;;;;;4.77;2.10;;;9.80;53.70;;;;;;5000244;28;20772;-59
2023/12/29 01:11:39;;;;;;;7.23;2.70;;;9.80;43.50;;;;;;5000367;28;20496;-64
2023/12/29 01:14:06;;;;;;;8.23;2.20;;;9.80;20.90;;;;;;5000320;28;20835;-60
2023/12/29 01:16:33;;;;;;;4.40;2.70;;;9.90;13.20;;;;;;4999991;28;20464;-59
2023/12/29 01:19:01;;;;;;;6.90;2.50;;;9.80;43.10;;;;;;4999507;28;20461;-59
2023/12/29 01:21:28;;;;;;;5.63;2.93;;;9.80;5.80;;;;;;5000120;28;20515;-61
2023/12/29 01:23:55;;;;;;;7.03;2.63;;;9.90;1.00;;;;;;5000062;28;20504;-62
2023/12/29 01:26:23;;;;;;;7.83;3.20;;;9.90;1.00;;;;;;5000347;28;20512;-61
2023/12/29 01:28:51;;;;;;;5.23;2.70;;;9.90;1.00;;;;;;4999683;28;20461;-60
2023/12/29 01:31:18;;;;;;;4.83;2.17;;;9.90;1.00;;;;;;4999717;28;20497;-60
2023/12/29 01:33:45;;;;;;;5.27;3.03;;;9.90;1.00;;;;;;4999817;28;20464;-61
2023/12/29 01:36:19;;;;;;;8.60;2.10;;;9.90;1.00;;;;;;4999880;28;20460;-60
2023/12/29 01:38:46;;;;;;;8.10;2.57;;;9.90;1.00;;;;;;4999591;28;20514;-58
2023/12/29 01:41:14;;;;;;;10.30;3.20;;;10.00;1.00;;;;;;4999879;28;20492;-62
2023/12/29 01:44:20;;;;;;;7.33;2.93;;;10.00;1.00;;;;;;4999612;28;20464;-61
2023/12/29 01:46:50;;;;;;;4.77;2.33;;;10.00;1.00;;;;;;4999671;28;20779;-60
2023/12/29 01:49:18;;;;;;;4.03;2.13;;;10.00;1.00;;;;;;4999745;28;20714;-61
2023/12/29 01:51:49;;;;;;;5.50;2.60;;;10.00;1.00;;;;;;4999472;28;20795;-60
2023/12/29 01:54:18;;;;;;;6.20;2.40;;;10.00;1.00;;;;;;4999939;28;20472;-60
2023/12/29 01:56:45;;;;;;;5.00;2.77;;;10.00;1.00;;;;;;4999157;28;20853;-60
2023/12/29 01:59:13;;;;;;;4.13;2.30;;;9.90;1.00;;;;;;4998912;28;20644;-60
2023/12/29 02:01:42;;;;;;;10.03;2.73;;;10.00;1.00;;;;;;4999108;28;20493;-60
2023/12/29 02:04:09;;;;;;;9.10;3.67;;;9.90;1.00;;;;;;4999337;28;20521;-61
2023/12/29 02:06:37;;;;;;;4.77;2.30;;;9.90;1.00;;;;;;4999770;28;20551;-60
2023/12/29 02:09:04;;;;;;;5.20;2.63;;;9.90;11.00;;;;;;4998982;28;20465;-61
2023/12/29 02:11:32;;;;;;;5.27;2.63;;;9.90;99.00;;;;;;4999121;28;20493;-62
2023/12/29 02:13:59;;;;;;;7.63;2.83;;;9.90;48.90;;;;;;4998971;28;20603;-59
2023/12/29 02:16:36;;;;;;;7.27;2.40;;;9.90;95.90;;;;;;4999081;28;20471;-61
2023/12/29 02:19:15;;;;;;;7.00;3.50;;;9.90;99.90;;;;;;4998808;28;20465;-61
2023/12/29 02:21:43;;;;;;;5.97;2.70;;;9.90;99.90;;;;;;4998991;28;20469;-60
2023/12/29 02:24:10;;;;;;;9.97;2.80;;;9.90;99.90;;;;;;4998596;28;20469;-61
2023/12/29 02:26:39;;;;;;;5.67;2.47;;;9.90;99.90;;;;;;4998945;28;20499;-62
2023/12/29 02:29:11;;;;;;;6.50;2.57;;;9.90;99.90;;;;;;4998959;28;20461;-62
2023/12/29 02:31:42;;;;;;;8.13;2.93;;;9.80;1.00;;;;;;4999073;28;20871;-63
2023/12/29 02:34:11;;;;;;;7.87;2.50;;;9.70;12.20;;;;;;4998907;28;20483;-65
2023/12/29 02:36:42;;;;;;;5.20;2.70;;;9.60;99.90;;;;;;4998851;28;20774;-62
2023/12/29 02:39:10;;;;;;;6.10;2.83;;;9.50;99.90;;;;;;4999385;28;20461;-59
2023/12/29 02:41:39;;;;;;;10.00;3.20;;;9.40;1.00;;;;;;5000001;28;20461;-65
2023/12/29 02:44:07;;;;;;;9.27;3.77;;;9.40;1.00;;;;;;4999530;28;20559;-64
2023/12/29 02:46:34;;;;;;;8.87;3.00;;;9.30;64.90;;;;;;4999850;28;20540;-64
2023/12/29 02:49:01;;;;;;;9.03;3.43;;;9.20;99.90;;;;;;4998712;28;20468;-65
2023/12/29 02:51:28;;;;;;;7.60;2.80;;;9.10;99.90;;;;;;4998986;28;20499;-65
2023/12/29 02:53:55;;;;;;;7.20;2.90;;;9.00;1.00;;;;;;4998994;28;20560;-65
2023/12/29 02:56:23;;;;;;;7.30;2.90;;;9.00;1.00;;;;;;4998971;28;20465;-66
2023/12/29 02:58:51;;;;;;;6.40;2.97;;;9.00;1.00;;;;;;4998890;28;20468;-66
2023/12/29 03:01:18;;;;;;;7.43;2.80;;;9.00;1.00;;;;;;4998586;28;21022;-65
2023/12/29 03:03:46;;;;;;;8.90;3.53;;;8.90;1.00;;;;;;4998313;28;20464;-66
2023/12/29 03:06:13;;;;;;;13.63;3.53;;;8.90;1.00;;;;;;4999191;28;20867;-67
2023/12/29 03:08:41;;;;;;;4.70;3.60;;;8.90;1.00;;;;;;4999267;28;20453;-65
2023/12/29 03:11:08;;;;;;;8.73;3.37;;;8.90;1.00;;;;;;4999548;28;20535;-69
2023/12/29 03:13:35;;;;;;;13.27;3.63;;;8.90;1.00;;;;;;5000813;28;20475;-70
2023/12/29 03:16:04;;;;;;;7.90;3.60;;;8.90;1.00;;;;;;5003311;28;20551;-70
2023/12/29 03:18:33;;;;;;;9.70;3.50;;;8.90;1.00;;;;;;5002034;28;20563;-70
2023/12/29 03:21:00;;;;;;;11.40;3.87;;;9.00;1.00;;;;;;5001549;28;20575;-73
2023/12/29 03:23:28;;;;;;;12.50;3.33;;;9.00;1.00;;;;;;5000783;28;20468;-70
2023/12/29 03:25:55;;;;;;;7.63;3.30;;;9.00;1.00;;;;;;4999673;28;20748;-70
2023/12/29 03:28:22;;;;;;;8.33;3.30;;;9.00;1.00;;;;;;4999480;28;20496;-70
2023/12/29 03:30:49;;;;;;;6.57;2.97;;;9.00;1.00;;;;;;4999024;28;20467;-68
2023/12/29 03:33:18;;;;;;;11.37;3.67;;;9.10;1.00;;;;;;4998946;28;20492;-69
2023/12/29 03:35:45;;;;;;;6.80;3.50;;;9.10;99.90;;;;;;4998435;28;20460;-68
2023/12/29 03:38:12;;;;;;;10.33;3.20;;;9.10;99.90;;;;;;4999254;28;20563;-67
2023/12/29 03:40:39;;;;;;;10.13;3.47;;;9.10;99.90;;;;;;4998744;28;20461;-67
2023/12/29 03:43:07;;;;;;;5.40;2.60;;;9.20;99.90;;;;;;4998601;28;20735;-67
2023/12/29 03:45:34;;;;;;;9.00;3.23;;;9.20;99.90;;;;;;4998360;28;20464;-67
2023/12/29 03:48:01;;;;;;;8.57;3.33;;;9.30;99.90;;;;;;4998217;28;20460;-67
2023/12/29 03:50:30;;;;;;;5.93;2.67;;;9.20;99.90;;;;;;4997583;28;20515;-67
2023/12/29 03:52:57;;;;;;;7.10;3.00;;;9.30;99.90;;;;;;4998159;28;20501;-66
2023/12/29 03:55:24;;;;;;;6.80;2.77;;;9.20;99.90;;;;;;4998189;28;20464;-68
2023/12/29 03:57:51;;;;;;;6.90;3.13;;;9.30;84.10;;;;;;4998273;28;20890;-70
2023/12/29 04:00:19;;;;;;;5.90;3.10;;;9.30;58.50;;;;;;4997941;28;20464;-71
2023/12/29 04:02:46;;;;;;;11.53;3.57;;;9.40;1.00;;;;;;4997536;28;20467;-66
2023/12/29 04:05:13;;;;;;;9.97;3.00;;;9.30;1.00;;;;;;4998028;28;20468;-67
2023/12/29 04:07:42;;;;;;;7.43;2.93;;;9.30;1.00;;;;;;4997584;28;20471;-64
2023/12/29 04:10:10;;;;;;;5.30;2.73;;;9.40;1.00;;;;;;4997589;28;20898;-66
2023/12/29 04:12:38;;;;;;;6.83;2.60;;;9.40;1.00;;;;;;4997763;28;20521;-69
2023/12/29 04:15:06;;;;;;;14.80;3.20;;;9.40;1.00;;;;;;4997393;28;20511;-64
2023/12/29 04:17:33;;;;;;;9.43;3.40;;;9.40;1.00;;;;;;4997670;28;20464;-64
2023/12/29 04:20:00;;;;;;;9.03;3.50;;;9.40;1.00;;;;;;4997250;28;20477;-64
2023/12/29 04:22:27;;;;;;;8.13;2.67;;;9.40;1.00;;;;;;4999120;28;20484;-64
2023/12/29 04:24:56;;;;;;;9.17;2.50;;;9.40;1.00;;;;;;5001139;28;20871;-64
2023/12/29 04:27:23;;;;;;;8.83;3.60;;;9.40;1.00;;;;;;5001248;28;20969;-65
2023/12/29 04:29:50;;;;;;;5.67;2.80;;;9.40;1.00;;;;;;5001390;28;20461;-65
2023/12/29 04:32:17;;;;;;;7.40;2.80;;;9.50;1.00;;;;;;5001234;28;20522;-64
2023/12/29 04:34:45;;;;;;;6.13;2.77;;;9.50;1.00;;;;;;5001319;28;20744;-66
2023/12/29 04:37:12;;;;;;;10.80;3.00;;;9.40;23.80;;;;;;5002507;28;20463;-67
2023/12/29 04:39:39;;;;;;;5.73;2.83;;;9.30;99.90;;;;;;5001965;28;20515;-67
2023/12/29 04:42:08;;;;;;;7.90;3.17;;;9.20;99.90;;;;;;5001459;28;20465;-63
2023/12/29 04:44:35;;;;;;;9.83;3.40;;;9.20;99.90;;;;;;5001362;28;20890;-64
2023/12/29 04:47:02;;;;;;;7.20;2.67;;;9.20;1.00;;;;;;5001317;28;20548;-63
2023/12/29 04:49:29;;;;;;;9.80;3.33;;;9.10;1.00;;;;;;5001282;28;20500;-65
2023/12/29 04:51:56;;;;;;;10.67;4.10;;;9.10;1.00;;;;;;5001004;28;20802;-65
2023/12/29 04:54:25;;;;;;;5.90;3.00;;;9.10;1.00;;;;;;5001190;28;20495;-63
2023/12/29 04:56:55;;;;;;;6.70;2.73;;;9.10;99.90;;;;;;5001666;28;20445;-68
2023/12/29 04:59:23;;;;;;;8.43;3.57;;;9.20;99.90;;;;;;5002316;28;20476;-68
2023/12/29 05:01:50;;;;;;;7.10;2.90;;;9.20;99.90;;;;;;5002285;28;20464;-68
2023/12/29 05:04:18;;;;;;;7.27;3.47;;;9.30;99.90;;;;;;5002843;28;20461;-69
2023/12/29 05:06:45;;;;;;;9.00;3.00;;;9.20;99.90;;;;;;5005399;28;20500;-70
2023/12/29 05:09:12;;;;;;;9.40;3.50;;;9.30;99.90;;;;;;5006241;28;20464;-67
2023/12/29 05:11:40;;;;;;;10.53;3.63;;;9.30;99.90;;;;;;5003808;28;20532;-69
2023/12/29 05:14:06;;;;;;;9.47;3.00;;;9.30;99.90;;;;;;5002726;28;21003;-69
2023/12/29 05:16:34;;;;;;;13.90;3.40;;;9.40;17.20;;;;;;5002827;28;20461;-69
2023/12/29 05:19:01;;;;;;;10.50;3.50;;;9.40;1.00;;;;;;5000936;28;20563;-68
2023/12/29 05:21:29;;;;;;;5.80;2.43;;;9.40;1.00;;;;;;5001120;28;20457;-67
2023/12/29 05:23:56;;;;;;;17.47;3.23;;;9.40;1.00;;;;;;5001343;28;20580;-68
2023/12/29 05:26:23;;;;;;;8.60;3.00;;;9.40;1.00;;;;;;5000096;28;20860;-67
2023/12/29 05:28:50;;;;;;;7.77;3.30;;;9.40;1.00;;;;;;5000718;28;20556;-67
2023/12/29 05:31:17;;;;;;;9.30;3.37;;;9.40;1.00;;;;;;5000195;28;20882;-68
2023/12/29 05:33:46;;;;;;;7.20;3.07;;;9.50;1.00;;;;;;4999181;28;20500;-66
2023/12/29 05:36:13;;;;;;;8.90;2.87;;;9.50;1.00;;;;;;5001033;28;20465;-69
2023/12/29 05:38:41;;;;;;;11.23;2.80;;;9.50;1.00;;;;;;5000474;28;20551;-68
2023/12/29 05:41:08;;;;;;;12.23;2.93;;;9.50;1.00;;;;;;5000126;28;20467;-66
2023/12/29 05:43:36;;;;;;;8.13;2.83;;;9.50;1.00;;;;;;5000412;28;20493;-67
2023/12/29 05:46:03;;;;;;;10.43;3.13;;;9.50;1.00;;;;;;5000719;28;20563;-67
2023/12/29 05:48:30;;;;;;;4.57;2.40;;;9.50;1.00;;;;;;5000263;28;20457;-69
2023/12/29 05:50:59;;;;;;;5.60;2.90;;;9.50;99.90;;;;;;5000123;28;20504;-66
2023/12/29 05:53:26;;;;;;;5.73;2.10;;;9.50;99.90;;;;;;4999934;28;20519;-65
2023/12/29 05:55:53;;;;;;;7.73;2.57;;;9.50;99.90;;;;;;5000012;28;20465;-68
2023/12/29 05:58:21;;;;;;;6.17;2.60;;;9.60;99.90;;;;;;5000416;28;20825;-67
2023/12/29 06:00:48;;;;;;;7.53;3.00;;;9.60;99.90;;;;;;4999542;28;20536;-66
2023/12/29 06:03:15;;;;;;;11.30;2.77;;;9.50;99.90;;;;;;4999838;28;20512;-66
2023/12/29 06:05:43;;;;;;;6.17;2.83;;;9.60;99.90;;;;;;4998203;28;20465;-66
2023/12/29 06:08:11;;;;;;;5.67;2.50;;;9.50;99.90;;;;;;4998548;28;20771;-67
2023/12/29 06:10:38;;;;;;;9.13;2.73;;;9.50;97.00;;;;;;4999277;28;20903;-65
2023/12/29 06:13:06;;;;;;;6.70;2.77;;;9.50;99.90;;;;;;4997864;28;20501;-66
2023/12/29 06:15:33;;;;;;;9.23;2.83;;;9.50;99.90;;;;;;4998569;28;20465;-65
2023/12/29 06:18:01;;;;;;;9.00;4.00;;;9.50;99.90;;;;;;4999160;28;20566;-69
2023/12/29 06:20:28;;;;;;;10.10;3.20;;;9.50;99.90;;;;;;4999685;28;20461;-67
2023/12/29 06:22:57;;;;;;;7.40;3.60;;;9.50;99.90;;;;;;4999046;28;20477;-64
2023/12/29 06:25:25;;;;;;;12.07;3.30;;;9.50;99.90;;;;;;4999455;28;20465;-64
2023/12/29 06:27:53;;;;;;;6.93;3.10;;;9.50;99.90;;;;;;4998492;28;20468;-66
2023/12/29 06:30:20;;;;;;;5.93;2.87;;;9.50;99.90;;;;;;4999572;28;20515;-63
2023/12/29 06:32:47;;;;;;;5.43;2.77;;;9.50;99.90;;;;;;4999140;28;20800;-62
2023/12/29 06:35:15;;;;;;;7.67;2.47;;;9.50;99.90;;;;;;4999097;28;20519;-63
2023/12/29 06:37:42;;;;;;;5.90;2.60;;;9.50;99.90;;;;;;4999196;28;20809;-64
2023/12/29 06:40:10;;;;;;;6.57;2.73;;;9.50;99.90;;;;;;4999121;28;20465;-62
2023/12/29 06:42:38;;;;;;;9.43;2.87;;;9.50;99.90;;;;;;4999077;28;20504;-64
2023/12/29 06:45:08;;;;;;;8.07;2.33;;;9.50;99.90;;;;;;4998530;28;20565;-64
2023/12/29 06:47:35;;;;;;;6.23;2.83;;;9.50;99.90;;;;;;4998829;28;20465;-65
2023/12/29 06:50:03;;;;;;;6.47;2.97;;;9.50;99.90;;;;;;4998582;28;20468;-64
2023/12/29 06:52:33;;;;;;;8.07;3.30;;;9.40;99.90;;;;;;4998585;28;20472;-66
2023/12/29 06:55:01;;;;;;;6.10;2.10;;;9.40;99.90;;;;;;4998063;28;20508;-64
2023/12/29 06:57:28;;;;;;;5.33;2.57;;;9.50;99.90;;;;;;4998080;28;20465;-63
2023/12/29 06:59:57;;;;;;;6.97;2.70;;;9.50;99.90;;;;;;4998495;28;20472;-63
2023/12/29 07:02:25;;;;;;;11.27;3.00;;;9.40;99.90;;;;;;4998456;28;20491;-63
2023/12/29 07:04:52;;;;;;;8.47;2.67;;;9.40;99.90;;;;;;4998249;28;20496;-62
2023/12/29 07:07:19;;;;;;;8.63;3.70;;;9.40;99.90;;;;;;4998413;28;20984;-63
2023/12/29 07:09:46;;;;;;;5.83;2.80;;;9.40;99.90;;;;;;4998522;28;20523;-63
2023/12/29 07:12:14;;;;;;;5.10;2.80;;;9.40;99.90;;;;;;4998796;28;20563;-63
2023/12/29 07:14:42;;;;;;;5.57;2.50;;;9.40;99.90;;;;;;4997953;28;20938;-63
2023/12/29 07:17:14;;;;;;;6.77;2.57;;;9.40;99.90;;;;;;4998088;28;20890;-63
2023/12/29 07:19:41;;;;;;;4.50;2.70;;;9.40;99.90;;;;;;4997960;28;20466;-63
2023/12/29 07:22:08;;;;;;;5.77;2.60;;;9.40;99.90;;;;;;4997675;28;20809;-63
2023/12/29 07:24:36;;;;;;;8.13;2.67;;;9.40;99.90;;;;;;4996970;28;20456;-64
2023/12/29 07:27:04;;;;;;;6.17;2.37;;;9.40;99.90;;;;;;4996535;28;20555;-63
2023/12/29 07:29:33;;;;;;;6.27;2.50;;;9.40;99.90;;;;;;4997451;28;20465;-63
2023/12/29 07:32:00;;;;;;;5.90;2.43;;;9.40;99.90;;;;;;4997352;28;20493;-62
2023/12/29 07:34:30;;;;;;;7.93;3.00;;;9.30;99.90;;;;;;4997214;28;20845;-63
2023/12/29 07:36:58;;;;;;;10.50;3.00;;;9.30;99.90;;;;;;4997262;28;20603;-64
2023/12/29 07:39:25;;;;;;;7.77;3.50;;;9.30;99.90;;;;;;4997581;28;20568;-62
2023/12/29 07:41:53;;;;;;;7.37;2.50;;;9.40;99.90;;;;;;4997884;28;20528;-63
2023/12/29 07:44:20;;;;;;;5.27;2.80;;;9.30;99.90;;;;;;4997913;28;20461;-63
2023/12/29 07:46:47;;;;;;;6.10;2.47;;;9.30;99.90;;;;;;4997432;28;20464;-63
2023/12/29 07:49:17;;;;;;;7.90;2.50;;;9.40;99.90;;;;;;4997800;28;20472;-63
2023/12/29 07:51:48;;;;;;;6.27;2.70;;;9.40;99.90;;;;;;4997656;28;20446;-63
2023/12/29 07:54:15;;;;;;;8.40;3.23;;;9.30;99.90;;;;;;4998219;28;20591;-64
2023/12/29 07:56:42;;;;;;;7.23;3.00;;;9.30;1.00;;;;;;4998524;28;20899;-67
2023/12/29 07:59:10;;;;;;;7.47;2.90;;;9.30;1.00;;;;;;5002028;28;20548;-67
2023/12/29 08:01:38;;;;;;;5.73;2.83;;;9.30;99.90;;;;;;5005257;28;20464;-67
2023/12/29 08:04:06;;;;;;;10.20;2.80;;;9.20;99.90;;;;;;5002122;28;20460;-66
2023/12/29 08:06:34;;;;;;;6.27;3.13;;;9.10;99.90;;;;;;5001418;28;20471;-64
2023/12/29 08:09:02;;;;;;;9.47;3.50;;;9.00;1.00;;;;;;5000827;28;20464;-66
2023/12/29 08:11:29;;;;;;;6.17;3.10;;;8.90;1.00;;;;;;5001145;28;20886;-65
2023/12/29 08:13:56;;;;;;;8.67;2.40;;;8.90;1.00;;;;;;5001104;28;20580;-66
2023/12/29 08:16:24;;;;;;;9.70;3.80;;;8.90;43.70;;;;;;5000673;28;20452;-65
2023/12/29 08:18:51;;;;;;;8.50;3.90;;;8.80;99.90;;;;;;5001083;28;20765;-64
2023/12/29 08:21:19;;;;;;;8.80;3.07;;;8.80;99.90;;;;;;5000866;28;20457;-65
2023/12/29 08:23:47;;;;;;;6.37;3.00;;;8.70;1.00;;;;;;5000030;28;20535;-64
2023/12/29 08:26:16;;;;;;;7.70;2.70;;;8.70;1.00;;;;;;4999662;28;20469;-66
2023/12/29 08:28:45;;;;;;;4.13;2.47;;;8.70;1.00;;;;;;5000524;28;20461;-65
2023/12/29 08:31:12;;;;;;;8.13;3.20;;;8.70;1.00;;;;;;5000584;28;20487;-66
2023/12/29 08:33:39;;;;;;;6.47;2.57;;;8.60;25.20;;;;;;5000394;28;20492;-65
2023/12/29 08:36:07;;;;;;;12.17;3.23;;;8.70;91.60;;;;;;5000460;28;20467;-65
2023/12/29 08:38:34;;;;;;;9.87;4.13;;;8.70;99.90;;;;;;5001166;28;20555;-67
2023/12/29 08:41:02;;;;;;;6.27;2.87;;;8.70;99.90;;;;;;5000504;28;20467;-64
2023/12/29 08:43:31;;;;;;;10.30;2.87;;;8.70;99.90;;;;;;5001096;28;20479;-65
2023/12/29 08:45:58;;;;;;;6.30;3.50;;;8.70;99.90;;;;;;5000421;28;20460;-65
2023/12/29 08:48:25;;;;;;;8.43;4.03;;;8.70;1.00;;;;;;5001020;28;20471;-65
2023/12/29 08:50:52;;;;;;;11.17;4.60;;;8.70;1.00;;;;;;5000529;28;20543;-65
2023/12/29 08:53:19;;;;;;;6.30;3.90;;;8.70;1.00;;;;;;5000538;28;20797;-65
2023/12/29 08:55:47;;;;;;;9.30;5.10;;;8.70;49.40;;;;;;5000669;28;20467;-65
2023/12/29 08:58:14;;;;;;;5.50;3.30;;;8.70;99.90;;;;;;5001148;28;20535;-65
2023/12/29 09:00:43;;;;;;;5.13;3.00;;;8.70;99.90;;;;;;5000322;28;20461;-66
2023/12/29 09:03:10;;;;;;;4.20;2.53;;;8.80;99.90;;;;;;4999280;28;20476;-66
2023/12/29 09:05:37;;;;;;;4.90;3.33;;;8.80;99.90;;;;;;4999969;28;20464;-66
2023/12/29 09:08:06;;;;;;;5.70;3.80;;;8.80;99.90;;;;;;4999248;28;20460;-67
2023/12/29 09:10:33;;;;;;;5.90;4.30;;;8.80;99.90;;;;;;4999947;28;20475;-67
2023/12/29 09:13:00;;;;;;;8.40;4.00;;;8.90;99.90;;;;;;5000253;28;20461;-66
2023/12/29 09:15:27;;;;;;;4.10;3.03;;;8.90;99.90;;;;;;5000065;28;20461;-67
2023/12/29 09:17:56;;;;;;;5.07;2.93;;;8.90;99.90;;;;;;5000388;28;20563;-67
2023/12/29 09:20:24;;;;;;;3.23;2.37;;;8.90;99.90;;;;;;5000633;28;20461;-66
2023/12/29 09:22:51;;;;;;;5.40;2.70;;;8.90;99.90;;;;;;4999951;28;20584;-67
2023/12/29 09:25:19;;;;;;;7.13;2.50;;;8.90;99.90;;;;;;4999786;28;20460;-64
2023/12/29 09:27:49;;;;;;;2.80;2.00;;;8.90;99.90;;;;;;5000187;28;20465;-65
2023/12/29 09:30:16;;;;;;;6.03;2.20;;;8.90;99.90;;;;;;5000275;28;20520;-66
2023/12/29 09:32:44;;;;;;;3.43;1.93;;;8.90;99.90;;;;;;4999442;28;20883;-65
2023/12/29 09:35:12;;;;;;;3.70;2.10;;;8.90;99.90;;;;;;4999653;28;21036;-66
2023/12/29 09:37:40;;;;;;;3.07;1.90;;;8.90;99.90;;;;;;4999953;28;20501;-66
2023/12/29 09:40:08;;;;;;;2.90;1.90;;;8.90;44.20;;;;;;4999929;28;20555;-66
2023/12/29 09:42:38;;;;;;;7.60;2.20;;;9.00;1.00;;;;;;4999860;28;20464;-66
2023/12/29 09:45:10;;;;;;;4.13;2.03;;;9.00;1.00;;;;;;4999549;28;20967;-65
2023/12/29 09:47:40;;;;;;;3.40;1.80;;;9.00;1.30;;;;;;4999474;28;20929;-67
2023/12/29 09:50:11;;;;;;;3.47;2.17;;;9.00;1.00;;;;;;4999576;28;20563;-67
2023/12/29 09:52:40;;;;;;;3.80;2.00;;;9.00;3.90;;;;;;5000208;28;20492;-63
2023/12/29 09:55:11;;;;;;;5.00;1.97;;;9.00;35.70;;;;;;4999535;28;20500;-65
2023/12/29 09:57:38;;;;;;;5.10;2.50;;;9.00;25.00;;;;;;4999322;28;20500;-65
2023/12/29 10:00:07;;;;;;;3.53;1.80;;;9.00;97.10;;;;;;4999689;28;20461;-64
2023/12/29 10:02:35;;;;;;;3.00;1.83;;;9.00;99.90;;;;;;4999695;28;20579;-65
2023/12/29 10:05:05;;;;;;;3.53;1.90;;;9.00;99.90;;;;;;4999117;28;20895;-65
2023/12/29 10:07:38;;;;;;;3.70;2.37;;;9.00;99.90;;;;;;4999501;28;20898;-65
2023/12/29 10:10:08;;;;;;;3.10;2.57;;;9.00;99.90;;;;;;4999619;28;20523;-64
2023/12/29 10:12:37;;;;;;;2.87;2.50;;;9.00;99.90;;;;;;4998526;28;20504;-65
2023/12/29 10:15:11;;;;;;;4.80;2.80;;;9.00;99.90;;;;;;4997231;28;20500;-63
2023/12/29 10:17:48;;;;;;;3.20;2.30;;;9.00;99.90;;;;;;4998671;28;20461;-65
2023/12/29 10:20:28;;;;;;;2.73;2.10;;;8.90;99.90;;;;;;4998911;28;20501;-60
2023/12/29 10:23:05;;;;;;;2.90;2.30;;;9.00;99.90;;;;;;4998113;28;20901;-63
2023/12/29 10:25:35;;;;;;;5.47;2.43;;;8.90;99.90;;;;;;4999211;28;20824;-64
2023/12/29 10:28:02;;;;;;;3.13;2.60;;;9.00;99.90;;;;;;4999539;28;20560;-65
2023/12/29 10:30:29;;;;;;;4.87;2.80;;;8.90;99.90;;;;;;4999071;28;20882;-64
2023/12/29 10:32:58;;;;;;;4.43;3.47;;;8.90;99.90;;;;;;4998795;28;20499;-66
2023/12/29 10:35:25;;;;;;;6.07;3.10;;;8.90;99.90;;;;;;4997982;28;20999;-63
2023/12/29 10:37:53;;;;;;;4.30;3.50;;;8.90;99.90;;;;;;4999182;28;20497;-64
2023/12/29 10:40:20;;;;;;;4.20;3.40;;;8.90;99.90;;;;;;4999279;28;20831;-65
2023/12/29 10:42:57;;;;;;;7.83;4.77;;;8.90;99.90;;;;;;4998779;28;20467;-65
2023/12/29 10:45:25;;;;;;;5.30;4.30;;;8.90;99.90;;;;;;4998917;28;20813;-66
2023/12/29 10:47:52;;;;;;;5.03;4.00;;;8.90;99.90;;;;;;4998944;28;20819;-65
2023/12/29 10:50:19;;;;;;;4.70;2.93;;;9.00;99.90;;;;;;4998811;28;20559;-64
2023/12/29 10:52:47;;;;;;;5.73;3.40;;;9.00;99.90;;;;;;4998296;28;20460;-65
2023/12/29 10:55:14;;;;;;;4.70;3.13;;;9.00;99.90;;;;;;4998675;28;20582;-64
2023/12/29 10:57:42;;;;;;;6.13;3.73;;;9.00;99.90;;;;;;4998519;28;20465;-65
2023/12/29 11:00:13;;;;;;;5.10;3.83;;;9.10;99.90;;;;;;4998503;28;20511;-65
2023/12/29 11:02:41;;;;;;;5.07;3.43;;;9.10;99.90;;;;;;4998571;28;20473;-63
2023/12/29 11:05:10;;;;;;;4.93;3.17;;;9.10;99.90;;;;;;4998285;28;20966;-65
2023/12/29 11:07:39;;;;;;;3.87;3.00;;;9.10;99.90;;;;;;4998219;28;20559;-65
2023/12/29 11:10:08;;;;;;;10.53;3.30;;;9.10;99.90;;;;;;4998665;28;20460;-64
2023/12/29 11:12:36;;;;;;;4.30;3.40;;;9.10;99.90;;;;;;4997042;28;20465;-66
2023/12/29 11:15:06;;;;;;;6.73;3.70;;;9.10;99.90;;;;;;4997970;28;20500;-66
2023/12/29 11:17:35;;;;;;;8.63;4.33;;;9.10;99.90;;;;;;4998046;28;20460;-66
2023/12/29 11:20:03;;;;;;;4.63;4.13;;;9.10;99.90;;;;;;4997922;28;20460;-66
2023/12/29 11:22:31;;;;;;;4.97;3.73;;;9.20;99.90;;;;;;4997586;28;20489;-66
2023/12/29 11:24:59;;;;;;;6.93;3.20;;;9.20;99.90;;;;;;4997244;28;20465;-67
2023/12/29 11:27:29;;;;;;;7.47;3.37;;;9.30;99.90;;;;;;4998275;28;20492;-68
2023/12/29 11:29:57;;;;;;;4.93;3.17;;;9.30;99.90;;;;;;4998029;28;20472;-68
2023/12/29 11:32:35;;;;;;;7.87;3.00;;;9.40;99.90;;;;;;4997134;28;20465;-69
2023/12/29 11:35:14;;;;;;;5.23;2.93;;;9.40;99.90;;;;;;4997554;28;20518;-69
2023/12/29 11:38:15;;;;;;;6.70;2.40;;;9.50;99.90;;;;;;4997762;28;20547;-68
2023/12/29 11:40:45;;;;;;;5.07;2.60;;;9.50;99.90;;;;;;4966520;28;20507;-68
2023/12/29 11:43:17;;;;;;;4.80;2.33;;;9.60;99.90;;;;;;4997602;28;20553;-68
2023/12/29 11:45:44;;;;;;;6.70;2.97;;;9.70;99.90;;;;;;4998203;28;20452;-69
2023/12/29 11:48:13;;;;;;;5.80;2.90;;;9.70;99.90;;;;;;4998440;28;20483;-71
2023/12/29 11:50:41;;;;;;;5.33;2.50;;;9.70;99.90;;;;;;4998121;28;20913;-70
2023/12/29 11:53:09;;;;;;;3.60;2.00;;;9.80;99.90;;;;;;4998643;28;20456;-71
2023/12/29 11:55:38;;;;;;;5.43;2.20;;;9.90;99.90;;;;;;4999577;28;20500;-71
2023/12/29 11:58:06;;;;;;;5.83;2.47;;;9.90;99.90;;;;;;5000854;28;20551;-70
2023/12/29 12:00:46;;;;;;;5.40;2.57;;;9.90;99.90;;;;;;4999356;28;20457;-67
2023/12/29 12:03:25;;;;;;;7.77;3.07;;;9.80;99.90;;;;;;5000507;28;20461;-70
2023/12/29 12:05:57;;;;;;;4.27;2.53;;;9.80;99.90;;;;;;4999316;28;20536;-69
2023/12/29 12:08:29;;;;;;;6.63;2.80;;;9.80;99.90;;;;;;4998897;28;20503;-64
2023/12/29 12:10:57;;;;;;;4.10;2.73;;;9.70;99.90;;;;;;4997452;28;20474;-67
2023/12/29 12:13:46;;;;;;;6.20;3.00;;;9.80;99.90;;;;;;4997508;28;20489;-67
2023/12/29 12:16:46;;;;;;;4.80;3.20;;;9.60;99.90;;;;;;4997970;28;20535;-63
2023/12/29 12:19:13;;;;;;;8.83;2.83;;;9.60;99.90;;;;;;4997554;28;20750;-66
2023/12/29 12:21:42;;;;;;;6.13;3.03;;;9.60;99.90;;;;;;4996990;28;20560;-66
2023/12/29 12:24:10;;;;;;;5.27;2.47;;;9.60;99.90;;;;;;4997777;28;20465;-65
2023/12/29 12:26:37;;;;;;;5.00;3.17;;;9.60;99.90;;;;;;4997768;28;20457;-66
2023/12/29 12:29:05;;;;;;;7.40;3.40;;;9.60;99.90;;;;;;4997298;28;20559;-65
2023/12/29 12:31:33;;;;;;;5.70;2.87;;;9.70;99.90;;;;;;4997229;28;20545;-64
2023/12/29 12:34:00;;;;;;;5.60;2.43;;;9.60;99.90;;;;;;4997365;28;20493;-63
2023/12/29 12:36:28;;;;;;;3.83;2.40;;;9.50;99.90;;;;;;4997331;28;20452;-65
2023/12/29 12:38:58;;;;;;;4.80;2.43;;;9.60;99.90;;;;;;4997344;28;20500;-63
2023/12/29 12:41:27;;;;;;;5.67;2.20;;;9.50;99.90;;;;;;4997331;28;20521;-64
2023/12/29 12:44:05;;;;;;;4.60;2.20;;;9.40;99.90;;;;;;5000134;28;21001;-64
2023/12/29 12:46:36;;;;;;;5.50;2.70;;;9.30;99.90;;;;;;5001040;28;20499;-64
2023/12/29 12:49:05;;;;;;;3.50;2.30;;;9.20;99.90;;;;;;5000678;28;20484;-64
2023/12/29 12:51:33;;;;;;;4.33;2.50;;;9.20;99.90;;;;;;5000610;28;20461;-64
2023/12/29 12:54:02;;;;;;;3.07;2.27;;;9.20;99.90;;;;;;5000832;28;20465;-65
2023/12/29 12:56:30;;;;;;;5.70;3.43;;;9.10;99.90;;;;;;5000577;28;20500;-66
2023/12/29 12:58:58;;;;;;;9.67;6.70;;;9.20;99.90;;;;;;5000575;28;20527;-64
2023/12/29 13:01:26;;;;;;;4.43;2.47;;;9.10;99.90;;;;;;5000663;28;20507;-65
2023/12/29 13:03:54;;;;;;;3.20;1.97;;;9.30;99.90;;;;;;5000530;28;20464;-65